sensor_id;sensor_type;location;lat;lon;timestamp;P1;durP1;ratioP1;P2;durP2;ratioP2
15082;SDS011;7640;53.116;6.878;2022-09-25T00:01:27;13.53;;;4.13;;
15082;SDS011;7640;53.116;6.878;2022-09-25T00:03:55;10.53;;;4.27;;
15082;SDS011;7640;53.116;6.878;2022-09-25T00:06:24;14.30;;;4.40;;
15082;SDS011;7640;53.116;6.878;2022-09-25T00:08:54;9.20;;;3.70;;
15082;SDS011;7640;53.116;6.878;2022-09-25T00:11:26;9.13;;;4.23;;
15082;SDS011;7640;53.116;6.878;2022-09-25T00:13:58;11.40;;;4.93;;
15082;SDS011;7640;53.116;6.878;2022-09-25T00:16:28;13.17;;;4.53;;
15082;SDS011;7640;53.116;6.878;2022-09-25T00:18:58;14.20;;;4.37;;
15082;SDS011;7640;53.116;6.878;2022-09-25T00:21:44;11.90;;;3.80;;
15082;SDS011;7640;53.116;6.878;2022-09-25T00:24:18;10.43;;;4.17;;
15082;SDS011;7640;53.116;6.878;2022-09-25T00:26:48;11.13;;;4.83;;
15082;SDS011;7640;53.116;6.878;2022-09-25T00:29:17;14.03;;;4.70;;
15082;SDS011;7640;53.116;6.878;2022-09-25T00:31:46;9.83;;;4.00;;
15082;SDS011;7640;53.116;6.878;2022-09-25T00:34:15;6.80;;;4.30;;
15082;SDS011;7640;53.116;6.878;2022-09-25T00:36:43;8.33;;;4.20;;
15082;SDS011;7640;53.116;6.878;2022-09-25T00:39:11;13.53;;;4.97;;
15082;SDS011;7640;53.116;6.878;2022-09-25T00:41:39;7.60;;;4.50;;
15082;SDS011;7640;53.116;6.878;2022-09-25T00:47:23;11.87;;;5.73;;
15082;SDS011;7640;53.116;6.878;2022-09-25T00:50:18;12.63;;;5.00;;
15082;SDS011;7640;53.116;6.878;2022-09-25T00:52:54;11.63;;;5.37;;
15082;SDS011;7640;53.116;6.878;2022-09-25T00:55:29;13.03;;;5.30;;
15082;SDS011;7640;53.116;6.878;2022-09-25T00:57:59;13.30;;;5.63;;
15082;SDS011;7640;53.116;6.878;2022-09-25T01:00:31;9.33;;;4.93;;
15082;SDS011;7640;53.116;6.878;2022-09-25T01:03:00;10.97;;;4.53;;
15082;SDS011;7640;53.116;6.878;2022-09-25T01:05:32;11.87;;;4.30;;
15082;SDS011;7640;53.116;6.878;2022-09-25T01:08:04;12.43;;;4.97;;
15082;SDS011;7640;53.116;6.878;2022-09-25T01:10:37;8.70;;;4.10;;
15082;SDS011;7640;53.116;6.878;2022-09-25T01:13:07;10.00;;;4.60;;
15082;SDS011;7640;53.116;6.878;2022-09-25T01:15:39;13.07;;;4.87;;
15082;SDS011;7640;53.116;6.878;2022-09-25T01:18:17;17.37;;;4.47;;
15082;SDS011;7640;53.116;6.878;2022-09-25T01:21:00;8.87;;;4.37;;
15082;SDS011;7640;53.116;6.878;2022-09-25T01:27:20;11.23;;;4.20;;
15082;SDS011;7640;53.116;6.878;2022-09-25T01:30:02;7.03;;;4.30;;
15082;SDS011;7640;53.116;6.878;2022-09-25T01:32:37;12.00;;;4.23;;
15082;SDS011;7640;53.116;6.878;2022-09-25T01:35:18;8.23;;;4.13;;
15082;SDS011;7640;53.116;6.878;2022-09-25T01:37:56;13.43;;;5.30;;
15082;SDS011;7640;53.116;6.878;2022-09-25T01:40:30;14.00;;;5.00;;
15082;SDS011;7640;53.116;6.878;2022-09-25T01:43:04;13.50;;;5.30;;
15082;SDS011;7640;53.116;6.878;2022-09-25T01:45:41;13.20;;;5.17;;
15082;SDS011;7640;53.116;6.878;2022-09-25T01:48:13;13.90;;;4.80;;
15082;SDS011;7640;53.116;6.878;2022-09-25T01:50:46;8.20;;;4.40;;
15082;SDS011;7640;53.116;6.878;2022-09-25T01:53:19;10.73;;;4.60;;
15082;SDS011;7640;53.116;6.878;2022-09-25T01:55:53;10.73;;;4.20;;
15082;SDS011;7640;53.116;6.878;2022-09-25T01:58:26;11.20;;;5.20;;
15082;SDS011;7640;53.116;6.878;2022-09-25T02:01:02;15.17;;;4.90;;
15082;SDS011;7640;53.116;6.878;2022-09-25T02:03:36;10.17;;;4.90;;
15082;SDS011;7640;53.116;6.878;2022-09-25T02:06:11;8.87;;;4.87;;
15082;SDS011;7640;53.116;6.878;2022-09-25T02:08:45;10.97;;;5.07;;
15082;SDS011;7640;53.116;6.878;2022-09-25T02:11:17;11.13;;;5.57;;
15082;SDS011;7640;53.116;6.878;2022-09-25T02:13:48;9.73;;;5.00;;
15082;SDS011;7640;53.116;6.878;2022-09-25T02:16:25;9.57;;;4.83;;
15082;SDS011;7640;53.116;6.878;2022-09-25T02:18:58;13.60;;;5.10;;
15082;SDS011;7640;53.116;6.878;2022-09-25T02:22:00;9.87;;;4.90;;
15082;SDS011;7640;53.116;6.878;2022-09-25T02:24:34;12.93;;;5.20;;
15082;SDS011;7640;53.116;6.878;2022-09-25T02:27:11;12.00;;;5.20;;
15082;SDS011;7640;53.116;6.878;2022-09-25T02:29:40;15.87;;;5.80;;
15082;SDS011;7640;53.116;6.878;2022-09-25T02:32:10;12.50;;;5.33;;
15082;SDS011;7640;53.116;6.878;2022-09-25T02:34:41;11.63;;;4.80;;
15082;SDS011;7640;53.116;6.878;2022-09-25T02:37:10;14.53;;;5.27;;
15082;SDS011;7640;53.116;6.878;2022-09-25T02:39:39;12.03;;;5.10;;
15082;SDS011;7640;53.116;6.878;2022-09-25T02:42:14;13.13;;;4.80;;
15082;SDS011;7640;53.116;6.878;2022-09-25T02:45:00;10.47;;;5.23;;
15082;SDS011;7640;53.116;6.878;2022-09-25T02:47:41;13.37;;;5.70;;
15082;SDS011;7640;53.116;6.878;2022-09-25T02:50:22;15.50;;;5.37;;
15082;SDS011;7640;53.116;6.878;2022-09-25T02:52:57;12.43;;;5.47;;
15082;SDS011;7640;53.116;6.878;2022-09-25T02:55:33;14.43;;;5.77;;
15082;SDS011;7640;53.116;6.878;2022-09-25T02:58:08;15.70;;;5.80;;
15082;SDS011;7640;53.116;6.878;2022-09-25T03:00:43;16.33;;;5.27;;
15082;SDS011;7640;53.116;6.878;2022-09-25T03:03:16;11.00;;;5.47;;
15082;SDS011;7640;53.116;6.878;2022-09-25T03:05:48;10.13;;;4.87;;
15082;SDS011;7640;53.116;6.878;2022-09-25T03:08:18;19.87;;;5.37;;
15082;SDS011;7640;53.116;6.878;2022-09-25T03:11:07;11.03;;;5.23;;
15082;SDS011;7640;53.116;6.878;2022-09-25T03:13:38;15.43;;;6.10;;
15082;SDS011;7640;53.116;6.878;2022-09-25T03:16:09;11.60;;;5.87;;
15082;SDS011;7640;53.116;6.878;2022-09-25T03:18:45;14.30;;;5.27;;
15082;SDS011;7640;53.116;6.878;2022-09-25T03:21:14;17.00;;;5.53;;
15082;SDS011;7640;53.116;6.878;2022-09-25T03:23:42;11.77;;;5.47;;
15082;SDS011;7640;53.116;6.878;2022-09-25T03:26:11;14.00;;;5.47;;
15082;SDS011;7640;53.116;6.878;2022-09-25T03:28:39;18.20;;;5.87;;
15082;SDS011;7640;53.116;6.878;2022-09-25T03:31:08;13.33;;;5.50;;
15082;SDS011;7640;53.116;6.878;2022-09-25T03:33:38;14.90;;;5.43;;
15082;SDS011;7640;53.116;6.878;2022-09-25T03:36:10;19.20;;;6.13;;
15082;SDS011;7640;53.116;6.878;2022-09-25T03:38:41;12.87;;;5.63;;
15082;SDS011;7640;53.116;6.878;2022-09-25T03:41:11;11.10;;;5.30;;
15082;SDS011;7640;53.116;6.878;2022-09-25T03:43:45;16.63;;;5.67;;
15082;SDS011;7640;53.116;6.878;2022-09-25T03:46:19;16.63;;;6.30;;
15082;SDS011;7640;53.116;6.878;2022-09-25T03:48:50;12.30;;;5.67;;
15082;SDS011;7640;53.116;6.878;2022-09-25T03:51:20;13.70;;;5.37;;
15082;SDS011;7640;53.116;6.878;2022-09-25T03:53:50;14.70;;;5.90;;
15082;SDS011;7640;53.116;6.878;2022-09-25T03:56:19;10.37;;;5.00;;
15082;SDS011;7640;53.116;6.878;2022-09-25T03:58:50;8.73;;;5.20;;
15082;SDS011;7640;53.116;6.878;2022-09-25T04:01:20;14.60;;;5.43;;
15082;SDS011;7640;53.116;6.878;2022-09-25T04:03:50;12.63;;;5.67;;
15082;SDS011;7640;53.116;6.878;2022-09-25T04:06:19;15.00;;;6.07;;
15082;SDS011;7640;53.116;6.878;2022-09-25T04:08:52;8.17;;;5.03;;
15082;SDS011;7640;53.116;6.878;2022-09-25T04:11:21;15.37;;;5.93;;
15082;SDS011;7640;53.116;6.878;2022-09-25T04:13:50;13.20;;;5.40;;
15082;SDS011;7640;53.116;6.878;2022-09-25T04:16:19;15.73;;;5.70;;
15082;SDS011;7640;53.116;6.878;2022-09-25T04:18:47;9.87;;;5.13;;
15082;SDS011;7640;53.116;6.878;2022-09-25T04:21:16;10.73;;;5.33;;
15082;SDS011;7640;53.116;6.878;2022-09-25T04:23:45;10.07;;;5.13;;
15082;SDS011;7640;53.116;6.878;2022-09-25T04:26:28;11.90;;;5.03;;
15082;SDS011;7640;53.116;6.878;2022-09-25T04:28:56;10.40;;;4.60;;
15082;SDS011;7640;53.116;6.878;2022-09-25T04:31:26;12.17;;;5.00;;
15082;SDS011;7640;53.116;6.878;2022-09-25T04:33:55;14.23;;;6.07;;
15082;SDS011;7640;53.116;6.878;2022-09-25T04:36:22;10.23;;;4.83;;
15082;SDS011;7640;53.116;6.878;2022-09-25T04:38:51;10.70;;;4.50;;
15082;SDS011;7640;53.116;6.878;2022-09-25T04:41:20;6.80;;;4.50;;
15082;SDS011;7640;53.116;6.878;2022-09-25T04:43:48;8.83;;;4.50;;
15082;SDS011;7640;53.116;6.878;2022-09-25T04:46:16;10.10;;;4.73;;
15082;SDS011;7640;53.116;6.878;2022-09-25T04:48:48;10.57;;;4.47;;
15082;SDS011;7640;53.116;6.878;2022-09-25T04:51:17;11.40;;;4.57;;
15082;SDS011;7640;53.116;6.878;2022-09-25T04:53:45;9.77;;;4.43;;
15082;SDS011;7640;53.116;6.878;2022-09-25T04:56:15;10.47;;;4.60;;
15082;SDS011;7640;53.116;6.878;2022-09-25T04:58:43;10.53;;;4.80;;
15082;SDS011;7640;53.116;6.878;2022-09-25T05:01:13;10.83;;;4.83;;
15082;SDS011;7640;53.116;6.878;2022-09-25T05:03:46;8.60;;;4.87;;
15082;SDS011;7640;53.116;6.878;2022-09-25T05:06:15;8.13;;;4.13;;
15082;SDS011;7640;53.116;6.878;2022-09-25T05:08:45;12.20;;;4.73;;
15082;SDS011;7640;53.116;6.878;2022-09-25T05:11:16;8.17;;;4.37;;
15082;SDS011;7640;53.116;6.878;2022-09-25T05:13:47;11.33;;;4.73;;
15082;SDS011;7640;53.116;6.878;2022-09-25T05:16:17;9.53;;;4.13;;
15082;SDS011;7640;53.116;6.878;2022-09-25T05:18:45;10.27;;;3.87;;
15082;SDS011;7640;53.116;6.878;2022-09-25T05:21:13;9.30;;;4.27;;
15082;SDS011;7640;53.116;6.878;2022-09-25T05:23:42;11.17;;;4.50;;
15082;SDS011;7640;53.116;6.878;2022-09-25T05:26:10;9.10;;;4.67;;
15082;SDS011;7640;53.116;6.878;2022-09-25T05:28:43;9.23;;;4.40;;
15082;SDS011;7640;53.116;6.878;2022-09-25T05:31:18;11.20;;;4.40;;
15082;SDS011;7640;53.116;6.878;2022-09-25T05:33:46;10.77;;;5.10;;
15082;SDS011;7640;53.116;6.878;2022-09-25T05:36:16;11.70;;;4.67;;
15082;SDS011;7640;53.116;6.878;2022-09-25T05:38:45;12.83;;;4.73;;
15082;SDS011;7640;53.116;6.878;2022-09-25T05:41:13;10.30;;;4.07;;
15082;SDS011;7640;53.116;6.878;2022-09-25T05:43:43;10.67;;;4.80;;
15082;SDS011;7640;53.116;6.878;2022-09-25T05:46:13;9.73;;;4.50;;
15082;SDS011;7640;53.116;6.878;2022-09-25T05:48:42;12.57;;;5.30;;
15082;SDS011;7640;53.116;6.878;2022-09-25T05:51:10;9.77;;;4.47;;
15082;SDS011;7640;53.116;6.878;2022-09-25T05:53:38;8.50;;;5.07;;
15082;SDS011;7640;53.116;6.878;2022-09-25T05:56:07;7.30;;;4.67;;
15082;SDS011;7640;53.116;6.878;2022-09-25T05:58:35;9.47;;;4.63;;
15082;SDS011;7640;53.116;6.878;2022-09-25T06:01:05;11.03;;;5.00;;
15082;SDS011;7640;53.116;6.878;2022-09-25T06:03:33;13.30;;;5.53;;
15082;SDS011;7640;53.116;6.878;2022-09-25T06:06:01;10.13;;;4.70;;
15082;SDS011;7640;53.116;6.878;2022-09-25T06:08:30;7.73;;;4.67;;
15082;SDS011;7640;53.116;6.878;2022-09-25T06:11:00;9.77;;;4.53;;
15082;SDS011;7640;53.116;6.878;2022-09-25T06:13:30;14.40;;;4.97;;
15082;SDS011;7640;53.116;6.878;2022-09-25T06:16:00;11.63;;;4.97;;
15082;SDS011;7640;53.116;6.878;2022-09-25T06:18:30;14.53;;;5.03;;
15082;SDS011;7640;53.116;6.878;2022-09-25T06:21:00;11.13;;;4.77;;
15082;SDS011;7640;53.116;6.878;2022-09-25T06:23:30;11.13;;;5.00;;
15082;SDS011;7640;53.116;6.878;2022-09-25T06:25:59;10.00;;;5.83;;
15082;SDS011;7640;53.116;6.878;2022-09-25T06:28:28;14.10;;;6.60;;
15082;SDS011;7640;53.116;6.878;2022-09-25T06:30:58;15.80;;;7.33;;
15082;SDS011;7640;53.116;6.878;2022-09-25T06:33:27;12.30;;;6.00;;
15082;SDS011;7640;53.116;6.878;2022-09-25T06:35:57;12.17;;;4.70;;
15082;SDS011;7640;53.116;6.878;2022-09-25T06:38:25;8.10;;;4.93;;
15082;SDS011;7640;53.116;6.878;2022-09-25T06:40:54;12.70;;;5.60;;
15082;SDS011;7640;53.116;6.878;2022-09-25T06:43:25;8.70;;;6.13;;
15082;SDS011;7640;53.116;6.878;2022-09-25T06:45:54;9.80;;;6.03;;
15082;SDS011;7640;53.116;6.878;2022-09-25T06:48:28;15.83;;;6.50;;
15082;SDS011;7640;53.116;6.878;2022-09-25T06:50:59;11.17;;;6.20;;
15082;SDS011;7640;53.116;6.878;2022-09-25T06:53:28;9.47;;;6.47;;
15082;SDS011;7640;53.116;6.878;2022-09-25T06:55:56;13.07;;;5.97;;
15082;SDS011;7640;53.116;6.878;2022-09-25T06:58:26;10.87;;;6.23;;
15082;SDS011;7640;53.116;6.878;2022-09-25T07:00:56;15.47;;;6.30;;
15082;SDS011;7640;53.116;6.878;2022-09-25T07:03:24;10.80;;;6.37;;
15082;SDS011;7640;53.116;6.878;2022-09-25T07:06:11;9.67;;;5.27;;
15082;SDS011;7640;53.116;6.878;2022-09-25T07:08:41;11.30;;;5.93;;
15082;SDS011;7640;53.116;6.878;2022-09-25T07:11:12;11.07;;;4.93;;
15082;SDS011;7640;53.116;6.878;2022-09-25T07:13:42;10.73;;;4.93;;
15082;SDS011;7640;53.116;6.878;2022-09-25T07:16:11;11.73;;;4.97;;
15082;SDS011;7640;53.116;6.878;2022-09-25T07:18:41;9.33;;;5.17;;
15082;SDS011;7640;53.116;6.878;2022-09-25T07:21:12;10.93;;;5.70;;
15082;SDS011;7640;53.116;6.878;2022-09-25T07:23:42;10.80;;;5.33;;
15082;SDS011;7640;53.116;6.878;2022-09-25T07:26:14;13.03;;;5.63;;
15082;SDS011;7640;53.116;6.878;2022-09-25T07:28:47;7.77;;;4.20;;
15082;SDS011;7640;53.116;6.878;2022-09-25T07:31:22;15.17;;;5.67;;
15082;SDS011;7640;53.116;6.878;2022-09-25T07:33:53;10.70;;;5.40;;
15082;SDS011;7640;53.116;6.878;2022-09-25T07:36:23;10.20;;;5.03;;
15082;SDS011;7640;53.116;6.878;2022-09-25T07:38:51;17.80;;;5.97;;
15082;SDS011;7640;53.116;6.878;2022-09-25T07:41:20;12.70;;;5.20;;
15082;SDS011;7640;53.116;6.878;2022-09-25T07:43:50;9.77;;;4.97;;
15082;SDS011;7640;53.116;6.878;2022-09-25T07:46:37;9.77;;;3.87;;
15082;SDS011;7640;53.116;6.878;2022-09-25T07:49:08;12.73;;;4.27;;
15082;SDS011;7640;53.116;6.878;2022-09-25T07:51:38;8.80;;;4.13;;
15082;SDS011;7640;53.116;6.878;2022-09-25T07:54:08;5.83;;;3.30;;
15082;SDS011;7640;53.116;6.878;2022-09-25T07:56:36;10.10;;;3.70;;
15082;SDS011;7640;53.116;6.878;2022-09-25T07:59:05;8.10;;;3.20;;
15082;SDS011;7640;53.116;6.878;2022-09-25T08:01:33;7.53;;;3.13;;
15082;SDS011;7640;53.116;6.878;2022-09-25T08:04:08;11.90;;;4.77;;
15082;SDS011;7640;53.116;6.878;2022-09-25T08:06:38;8.27;;;3.23;;
15082;SDS011;7640;53.116;6.878;2022-09-25T08:09:06;8.77;;;2.87;;
15082;SDS011;7640;53.116;6.878;2022-09-25T08:11:36;7.60;;;3.30;;
15082;SDS011;7640;53.116;6.878;2022-09-25T08:14:04;7.33;;;3.00;;
15082;SDS011;7640;53.116;6.878;2022-09-25T08:16:33;9.83;;;3.17;;
15082;SDS011;7640;53.116;6.878;2022-09-25T08:19:01;6.30;;;2.73;;
15082;SDS011;7640;53.116;6.878;2022-09-25T08:21:30;6.53;;;3.17;;
15082;SDS011;7640;53.116;6.878;2022-09-25T08:24:00;6.83;;;2.40;;
15082;SDS011;7640;53.116;6.878;2022-09-25T08:26:28;7.47;;;2.53;;
15082;SDS011;7640;53.116;6.878;2022-09-25T08:28:57;8.03;;;2.00;;
15082;SDS011;7640;53.116;6.878;2022-09-25T08:31:26;6.60;;;2.33;;
15082;SDS011;7640;53.116;6.878;2022-09-25T08:33:54;5.67;;;1.70;;
15082;SDS011;7640;53.116;6.878;2022-09-25T08:36:42;7.67;;;1.40;;
15082;SDS011;7640;53.116;6.878;2022-09-25T08:39:12;3.90;;;1.30;;
15082;SDS011;7640;53.116;6.878;2022-09-25T08:41:42;4.73;;;1.63;;
15082;SDS011;7640;53.116;6.878;2022-09-25T08:44:18;4.17;;;1.40;;
15082;SDS011;7640;53.116;6.878;2022-09-25T08:46:53;7.03;;;2.00;;
15082;SDS011;7640;53.116;6.878;2022-09-25T08:49:46;5.17;;;1.27;;
15082;SDS011;7640;53.116;6.878;2022-09-25T08:52:28;5.30;;;1.23;;
15082;SDS011;7640;53.116;6.878;2022-09-25T08:54:59;5.17;;;1.50;;
15082;SDS011;7640;53.116;6.878;2022-09-25T08:57:29;4.90;;;1.60;;
15082;SDS011;7640;53.116;6.878;2022-09-25T09:00:04;3.20;;;1.30;;
15082;SDS011;7640;53.116;6.878;2022-09-25T09:02:37;4.10;;;1.37;;
15082;SDS011;7640;53.116;6.878;2022-09-25T09:05:13;5.90;;;1.40;;
15082;SDS011;7640;53.116;6.878;2022-09-25T09:07:48;3.60;;;1.63;;
15082;SDS011;7640;53.116;6.878;2022-09-25T09:10:25;2.87;;;1.40;;
15082;SDS011;7640;53.116;6.878;2022-09-25T09:12:59;4.83;;;1.23;;
15082;SDS011;7640;53.116;6.878;2022-09-25T09:15:34;5.47;;;1.40;;
15082;SDS011;7640;53.116;6.878;2022-09-25T09:18:08;4.40;;;1.10;;
15082;SDS011;7640;53.116;6.878;2022-09-25T09:20:49;3.10;;;1.30;;
15082;SDS011;7640;53.116;6.878;2022-09-25T09:23:20;6.50;;;1.63;;
15082;SDS011;7640;53.116;6.878;2022-09-25T09:25:55;3.80;;;1.53;;
15082;SDS011;7640;53.116;6.878;2022-09-25T09:31:47;2.37;;;1.23;;
15082;SDS011;7640;53.116;6.878;2022-09-25T09:34:44;5.17;;;3.13;;
15082;SDS011;7640;53.116;6.878;2022-09-25T09:37:41;3.50;;;1.40;;
15082;SDS011;7640;53.116;6.878;2022-09-25T09:40:23;3.00;;;1.27;;
15082;SDS011;7640;53.116;6.878;2022-09-25T09:43:07;1.50;;;0.60;;
15082;SDS011;7640;53.116;6.878;2022-09-25T09:45:48;1.63;;;0.80;;
15082;SDS011;7640;53.116;6.878;2022-09-25T09:48:23;1.93;;;0.90;;
15082;SDS011;7640;53.116;6.878;2022-09-25T09:50:58;5.13;;;2.00;;
15082;SDS011;7640;53.116;6.878;2022-09-25T09:53:32;1.53;;;0.80;;
15082;SDS011;7640;53.116;6.878;2022-09-25T09:56:09;2.63;;;0.97;;
15082;SDS011;7640;53.116;6.878;2022-09-25T09:58:43;2.83;;;0.77;;
15082;SDS011;7640;53.116;6.878;2022-09-25T10:01:17;1.80;;;0.60;;
15082;SDS011;7640;53.116;6.878;2022-09-25T10:04:07;3.03;;;1.00;;
15082;SDS011;7640;53.116;6.878;2022-09-25T10:06:38;2.80;;;1.00;;
15082;SDS011;7640;53.116;6.878;2022-09-25T10:09:13;4.67;;;1.33;;
15082;SDS011;7640;53.116;6.878;2022-09-25T10:11:43;2.50;;;0.90;;
15082;SDS011;7640;53.116;6.878;2022-09-25T10:14:15;2.57;;;0.90;;
15082;SDS011;7640;53.116;6.878;2022-09-25T10:16:48;1.57;;;0.90;;
15082;SDS011;7640;53.116;6.878;2022-09-25T10:19:19;3.77;;;0.80;;
15082;SDS011;7640;53.116;6.878;2022-09-25T10:21:51;3.93;;;1.30;;
15082;SDS011;7640;53.116;6.878;2022-09-25T10:27:23;2.93;;;1.10;;
15082;SDS011;7640;53.116;6.878;2022-09-25T10:32:50;3.87;;;1.10;;
15082;SDS011;7640;53.116;6.878;2022-09-25T10:35:24;3.87;;;1.03;;
15082;SDS011;7640;53.116;6.878;2022-09-25T10:37:57;3.93;;;0.97;;
15082;SDS011;7640;53.116;6.878;2022-09-25T10:40:28;2.23;;;1.37;;
15082;SDS011;7640;53.116;6.878;2022-09-25T10:43:13;4.23;;;1.70;;
15082;SDS011;7640;53.116;6.878;2022-09-25T10:45:46;3.17;;;0.90;;
15082;SDS011;7640;53.116;6.878;2022-09-25T10:48:22;1.90;;;1.13;;
15082;SDS011;7640;53.116;6.878;2022-09-25T10:51:15;1.90;;;1.00;;
15082;SDS011;7640;53.116;6.878;2022-09-25T10:53:45;1.20;;;0.70;;
15082;SDS011;7640;53.116;6.878;2022-09-25T10:56:16;2.63;;;0.87;;
15082;SDS011;7640;53.116;6.878;2022-09-25T10:58:49;3.90;;;1.30;;
15082;SDS011;7640;53.116;6.878;2022-09-25T11:01:27;3.13;;;0.80;;
15082;SDS011;7640;53.116;6.878;2022-09-25T11:04:02;1.70;;;1.00;;
15082;SDS011;7640;53.116;6.878;2022-09-25T11:06:41;3.93;;;1.10;;
15082;SDS011;7640;53.116;6.878;2022-09-25T11:09:12;2.50;;;1.00;;
15082;SDS011;7640;53.116;6.878;2022-09-25T11:11:43;2.67;;;1.37;;
15082;SDS011;7640;53.116;6.878;2022-09-25T11:14:16;2.90;;;1.10;;
15082;SDS011;7640;53.116;6.878;2022-09-25T11:16:51;4.60;;;0.97;;
15082;SDS011;7640;53.116;6.878;2022-09-25T11:19:26;4.00;;;1.20;;
15082;SDS011;7640;53.116;6.878;2022-09-25T11:21:58;3.87;;;1.10;;
15082;SDS011;7640;53.116;6.878;2022-09-25T11:24:37;4.80;;;0.97;;
15082;SDS011;7640;53.116;6.878;2022-09-25T11:27:17;3.97;;;0.93;;
15082;SDS011;7640;53.116;6.878;2022-09-25T11:29:53;2.60;;;1.10;;
15082;SDS011;7640;53.116;6.878;2022-09-25T11:32:33;2.73;;;1.10;;
15082;SDS011;7640;53.116;6.878;2022-09-25T11:35:19;3.37;;;1.07;;
15082;SDS011;7640;53.116;6.878;2022-09-25T11:38:04;2.70;;;1.00;;
15082;SDS011;7640;53.116;6.878;2022-09-25T11:40:47;2.57;;;1.10;;
15082;SDS011;7640;53.116;6.878;2022-09-25T11:43:40;5.50;;;1.30;;
15082;SDS011;7640;53.116;6.878;2022-09-25T11:46:25;3.57;;;1.00;;
15082;SDS011;7640;53.116;6.878;2022-09-25T11:49:12;4.37;;;1.43;;
15082;SDS011;7640;53.116;6.878;2022-09-25T11:58:12;1.83;;;1.10;;
15082;SDS011;7640;53.116;6.878;2022-09-25T12:00:59;4.10;;;1.40;;
15082;SDS011;7640;53.116;6.878;2022-09-25T12:03:40;3.23;;;1.37;;
15082;SDS011;7640;53.116;6.878;2022-09-25T12:06:31;3.80;;;1.53;;
15082;SDS011;7640;53.116;6.878;2022-09-25T12:09:26;2.83;;;1.17;;
15082;SDS011;7640;53.116;6.878;2022-09-25T12:12:19;4.80;;;1.40;;
15082;SDS011;7640;53.116;6.878;2022-09-25T12:14:59;3.17;;;1.00;;
15082;SDS011;7640;53.116;6.878;2022-09-25T12:17:41;2.43;;;1.20;;
15082;SDS011;7640;53.116;6.878;2022-09-25T12:20:21;2.37;;;0.93;;
15082;SDS011;7640;53.116;6.878;2022-09-25T12:23:01;4.27;;;1.20;;
15082;SDS011;7640;53.116;6.878;2022-09-25T12:25:54;2.47;;;0.63;;
15082;SDS011;7640;53.116;6.878;2022-09-25T12:28:40;2.80;;;0.70;;
15082;SDS011;7640;53.116;6.878;2022-09-25T12:31:25;3.50;;;0.90;;
15082;SDS011;7640;53.116;6.878;2022-09-25T12:34:06;3.53;;;0.90;;
15082;SDS011;7640;53.116;6.878;2022-09-25T12:36:45;3.58;;;0.70;;
15082;SDS011;7640;53.116;6.878;2022-09-25T12:39:24;4.10;;;1.00;;
15082;SDS011;7640;53.116;6.878;2022-09-25T12:42:01;16.20;;;2.20;;
15082;SDS011;7640;53.116;6.878;2022-09-25T12:44:37;9.17;;;1.80;;
15082;SDS011;7640;53.116;6.878;2022-09-25T12:47:14;5.57;;;1.77;;
15082;SDS011;7640;53.116;6.878;2022-09-25T12:49:50;2.87;;;1.70;;
15082;SDS011;7640;53.116;6.878;2022-09-25T12:52:27;3.40;;;1.53;;
15082;SDS011;7640;53.116;6.878;2022-09-25T12:55:04;1.53;;;1.40;;
15082;SDS011;7640;53.116;6.878;2022-09-25T12:57:40;3.07;;;1.50;;
15082;SDS011;7640;53.116;6.878;2022-09-25T13:00:16;4.50;;;1.87;;
15082;SDS011;7640;53.116;6.878;2022-09-25T13:02:49;4.53;;;2.20;;
15082;SDS011;7640;53.116;6.878;2022-09-25T13:05:26;4.93;;;2.03;;
15082;SDS011;7640;53.116;6.878;2022-09-25T13:08:02;3.60;;;2.10;;
15082;SDS011;7640;53.116;6.878;2022-09-25T13:10:38;4.03;;;2.00;;
15082;SDS011;7640;53.116;6.878;2022-09-25T13:13:12;2.67;;;1.90;;
15082;SDS011;7640;53.116;6.878;2022-09-25T13:15:47;2.30;;;1.77;;
15082;SDS011;7640;53.116;6.878;2022-09-25T13:18:21;6.73;;;2.50;;
15082;SDS011;7640;53.116;6.878;2022-09-25T13:20:52;4.30;;;1.97;;
15082;SDS011;7640;53.116;6.878;2022-09-25T13:23:31;17.17;;;3.50;;
15082;SDS011;7640;53.116;6.878;2022-09-25T13:26:09;9.33;;;2.63;;
15082;SDS011;7640;53.116;6.878;2022-09-25T13:28:40;6.63;;;2.63;;
15082;SDS011;7640;53.116;6.878;2022-09-25T13:31:20;18.27;;;3.70;;
15082;SDS011;7640;53.116;6.878;2022-09-25T13:33:54;7.30;;;2.97;;
15082;SDS011;7640;53.116;6.878;2022-09-25T13:36:30;23.87;;;4.30;;
15082;SDS011;7640;53.116;6.878;2022-09-25T13:39:03;211.47;;;14.97;;
15082;SDS011;7640;53.116;6.878;2022-09-25T13:42:03;8.80;;;2.50;;
15082;SDS011;7640;53.116;6.878;2022-09-25T13:44:47;49.90;;;5.13;;
15082;SDS011;7640;53.116;6.878;2022-09-25T13:47:39;10.52;;;2.33;;
15082;SDS011;7640;53.116;6.878;2022-09-25T13:50:36;193.27;;;12.73;;
15082;SDS011;7640;53.116;6.878;2022-09-25T13:53:20;4.88;;;1.50;;
15082;SDS011;7640;53.116;6.878;2022-09-25T14:05:12;3.15;;;0.88;;
15082;SDS011;7640;53.116;6.878;2022-09-25T14:07:44;2.00;;;0.80;;
15082;SDS011;7640;53.116;6.878;2022-09-25T14:10:16;2.20;;;0.90;;
15082;SDS011;7640;53.116;6.878;2022-09-25T14:12:46;3.72;;;1.10;;
15082;SDS011;7640;53.116;6.878;2022-09-25T14:15:21;3.25;;;1.00;;
15082;SDS011;7640;53.116;6.878;2022-09-25T14:17:53;255.80;;;17.10;;
15082;SDS011;7640;53.116;6.878;2022-09-25T14:20:33;4.20;;;1.92;;
15082;SDS011;7640;53.116;6.878;2022-09-25T14:23:10;4.35;;;1.30;;
15082;SDS011;7640;53.116;6.878;2022-09-25T14:25:40;3.67;;;1.13;;
15082;SDS011;7640;53.116;6.878;2022-09-25T14:28:20;2.85;;;0.80;;
15082;SDS011;7640;53.116;6.878;2022-09-25T14:31:10;2.58;;;1.00;;
15082;SDS011;7640;53.116;6.878;2022-09-25T14:34:02;4.65;;;0.85;;
15082;SDS011;7640;53.116;6.878;2022-09-25T14:36:53;3.50;;;0.93;;
15082;SDS011;7640;53.116;6.878;2022-09-25T14:39:37;1.77;;;0.50;;
15082;SDS011;7640;53.116;6.878;2022-09-25T14:42:24;3.17;;;1.08;;
15082;SDS011;7640;53.116;6.878;2022-09-25T14:45:23;2.38;;;0.80;;
15082;SDS011;7640;53.116;6.878;2022-09-25T14:48:24;1.58;;;0.70;;
15082;SDS011;7640;53.116;6.878;2022-09-25T14:50:58;2.17;;;0.65;;
15082;SDS011;7640;53.116;6.878;2022-09-25T14:53:32;3.45;;;0.60;;
15082;SDS011;7640;53.116;6.878;2022-09-25T14:56:03;2.58;;;0.70;;
15082;SDS011;7640;53.116;6.878;2022-09-25T14:58:37;2.67;;;0.40;;
15082;SDS011;7640;53.116;6.878;2022-09-25T15:01:12;2.05;;;0.70;;
15082;SDS011;7640;53.116;6.878;2022-09-25T15:03:51;1.80;;;0.50;;
15082;SDS011;7640;53.116;6.878;2022-09-25T15:06:24;2.80;;;0.55;;
15082;SDS011;7640;53.116;6.878;2022-09-25T15:08:54;3.20;;;0.80;;
15082;SDS011;7640;53.116;6.878;2022-09-25T15:11:23;1.98;;;0.75;;
15082;SDS011;7640;53.116;6.878;2022-09-25T15:14:07;1.13;;;0.73;;
15082;SDS011;7640;53.116;6.878;2022-09-25T15:16:37;2.45;;;0.70;;
15082;SDS011;7640;53.116;6.878;2022-09-25T15:19:25;1.17;;;0.60;;
15082;SDS011;7640;53.116;6.878;2022-09-25T15:21:59;3.80;;;0.68;;
15082;SDS011;7640;53.116;6.878;2022-09-25T15:24:28;2.08;;;1.10;;
15082;SDS011;7640;53.116;6.878;2022-09-25T15:27:02;2.13;;;0.65;;
15082;SDS011;7640;53.116;6.878;2022-09-25T15:29:34;1.80;;;0.60;;
15082;SDS011;7640;53.116;6.878;2022-09-25T15:32:04;1.10;;;0.65;;
15082;SDS011;7640;53.116;6.878;2022-09-25T15:34:34;2.38;;;0.60;;
15082;SDS011;7640;53.116;6.878;2022-09-25T15:37:06;2.55;;;0.50;;
15082;SDS011;7640;53.116;6.878;2022-09-25T15:39:51;5.38;;;0.77;;
15082;SDS011;7640;53.116;6.878;2022-09-25T15:42:20;1.50;;;0.50;;
15082;SDS011;7640;53.116;6.878;2022-09-25T15:44:49;2.00;;;0.68;;
15082;SDS011;7640;53.116;6.878;2022-09-25T15:50:21;3.60;;;1.15;;
15082;SDS011;7640;53.116;6.878;2022-09-25T15:52:54;4.50;;;1.13;;
15082;SDS011;7640;53.116;6.878;2022-09-25T15:55:24;1.20;;;0.52;;
15082;SDS011;7640;53.116;6.878;2022-09-25T15:58:03;4.47;;;0.90;;
15082;SDS011;7640;53.116;6.878;2022-09-25T16:00:34;2.22;;;0.68;;
15082;SDS011;7640;53.116;6.878;2022-09-25T16:03:21;2.83;;;0.80;;
15082;SDS011;7640;53.116;6.878;2022-09-25T16:06:22;1.98;;;1.00;;
15082;SDS011;7640;53.116;6.878;2022-09-25T16:08:51;4.03;;;1.10;;
15082;SDS011;7640;53.116;6.878;2022-09-25T16:11:36;1.70;;;1.00;;
15082;SDS011;7640;53.116;6.878;2022-09-25T16:16:54;4.63;;;1.10;;